sensor_id;sensor_type;location;lat;lon;timestamp;P1;durP1;ratioP1;P2;durP2;ratioP2
18677;SDS011;9469;51.114;13.914;2022-10-15T00:04:45;12.93;;;7.80;;
18677;SDS011;9469;51.114;13.914;2022-10-15T00:09:50;12.63;;;9.07;;
18677;SDS011;9469;51.114;13.914;2022-10-15T00:14:57;9.67;;;8.10;;
18677;SDS011;9469;51.114;13.914;2022-10-15T00:20:03;11.93;;;8.90;;
18677;SDS011;9469;51.114;13.914;2022-10-15T00:25:12;13.00;;;8.67;;
18677;SDS011;9469;51.114;13.914;2022-10-15T00:30:19;12.00;;;9.10;;
18677;SDS011;9469;51.114;13.914;2022-10-15T00:35:24;10.90;;;8.87;;
18677;SDS011;9469;51.114;13.914;2022-10-15T00:40:29;13.73;;;9.00;;
18677;SDS011;9469;51.114;13.914;2022-10-15T00:45:37;11.70;;;9.43;;
18677;SDS011;9469;51.114;13.914;2022-10-15T00:50:42;14.77;;;9.73;;
18677;SDS011;9469;51.114;13.914;2022-10-15T00:55:49;13.83;;;9.70;;
18677;SDS011;9469;51.114;13.914;2022-10-15T01:00:57;13.33;;;9.57;;
18677;SDS011;9469;51.114;13.914;2022-10-15T01:06:03;16.17;;;9.90;;
18677;SDS011;9469;51.114;13.914;2022-10-15T01:11:12;14.30;;;10.57;;
18677;SDS011;9469;51.114;13.914;2022-10-15T01:16:34;11.43;;;9.57;;
18677;SDS011;9469;51.114;13.914;2022-10-15T01:21:49;13.70;;;9.93;;
18677;SDS011;9469;51.114;13.914;2022-10-15T01:32:37;14.77;;;10.30;;
18677;SDS011;9469;51.114;13.914;2022-10-15T01:37:49;14.13;;;9.83;;
18677;SDS011;9469;51.114;13.914;2022-10-15T01:42:58;14.47;;;10.27;;
18677;SDS011;9469;51.114;13.914;2022-10-15T01:48:24;13.03;;;10.67;;
18677;SDS011;9469;51.114;13.914;2022-10-15T01:53:32;17.77;;;10.07;;
18677;SDS011;9469;51.114;13.914;2022-10-15T01:58:39;14.53;;;10.63;;
18677;SDS011;9469;51.114;13.914;2022-10-15T02:03:49;13.93;;;10.90;;
18677;SDS011;9469;51.114;13.914;2022-10-15T02:08:57;14.30;;;11.60;;
18677;SDS011;9469;51.114;13.914;2022-10-15T02:14:12;17.67;;;11.03;;
18677;SDS011;9469;51.114;13.914;2022-10-15T02:19:23;19.50;;;13.03;;
18677;SDS011;9469;51.114;13.914;2022-10-15T02:24:37;15.47;;;12.60;;
18677;SDS011;9469;51.114;13.914;2022-10-15T02:29:44;14.17;;;11.30;;
18677;SDS011;9469;51.114;13.914;2022-10-15T02:34:55;17.50;;;12.17;;
18677;SDS011;9469;51.114;13.914;2022-10-15T02:40:00;17.47;;;12.67;;
18677;SDS011;9469;51.114;13.914;2022-10-15T02:45:06;18.33;;;12.60;;
18677;SDS011;9469;51.114;13.914;2022-10-15T02:50:16;18.57;;;12.93;;
18677;SDS011;9469;51.114;13.914;2022-10-15T02:55:21;16.43;;;12.47;;
18677;SDS011;9469;51.114;13.914;2022-10-15T03:00:26;17.47;;;13.30;;
18677;SDS011;9469;51.114;13.914;2022-10-15T03:05:34;18.93;;;12.17;;
18677;SDS011;9469;51.114;13.914;2022-10-15T03:10:39;17.53;;;12.73;;
18677;SDS011;9469;51.114;13.914;2022-10-15T03:15:46;17.20;;;12.50;;
18677;SDS011;9469;51.114;13.914;2022-10-15T03:20:54;16.33;;;12.73;;
18677;SDS011;9469;51.114;13.914;2022-10-15T03:26:00;18.57;;;12.77;;
18677;SDS011;9469;51.114;13.914;2022-10-15T03:31:05;14.83;;;11.20;;
18677;SDS011;9469;51.114;13.914;2022-10-15T03:36:13;16.37;;;12.17;;
18677;SDS011;9469;51.114;13.914;2022-10-15T03:41:18;15.23;;;11.50;;
18677;SDS011;9469;51.114;13.914;2022-10-15T03:46:23;15.50;;;12.20;;
18677;SDS011;9469;51.114;13.914;2022-10-15T03:51:31;18.53;;;12.57;;
18677;SDS011;9469;51.114;13.914;2022-10-15T03:56:42;14.83;;;11.40;;
18677;SDS011;9469;51.114;13.914;2022-10-15T04:01:58;14.70;;;12.23;;
18677;SDS011;9469;51.114;13.914;2022-10-15T04:07:07;16.97;;;11.77;;
18677;SDS011;9469;51.114;13.914;2022-10-15T04:12:15;14.53;;;11.87;;
18677;SDS011;9469;51.114;13.914;2022-10-15T04:17:20;14.63;;;11.93;;
18677;SDS011;9469;51.114;13.914;2022-10-15T04:22:28;15.97;;;12.40;;
18677;SDS011;9469;51.114;13.914;2022-10-15T04:27:35;18.37;;;12.60;;
18677;SDS011;9469;51.114;13.914;2022-10-15T04:32:49;15.87;;;12.03;;
18677;SDS011;9469;51.114;13.914;2022-10-15T04:37:58;14.97;;;11.27;;
18677;SDS011;9469;51.114;13.914;2022-10-15T04:43:24;15.67;;;11.37;;
18677;SDS011;9469;51.114;13.914;2022-10-15T04:48:34;17.63;;;11.13;;
18677;SDS011;9469;51.114;13.914;2022-10-15T04:53:49;13.07;;;10.60;;
18677;SDS011;9469;51.114;13.914;2022-10-15T04:58:54;14.87;;;10.67;;
18677;SDS011;9469;51.114;13.914;2022-10-15T05:04:03;15.30;;;10.50;;
18677;SDS011;9469;51.114;13.914;2022-10-15T05:09:13;13.50;;;10.67;;
18677;SDS011;9469;51.114;13.914;2022-10-15T05:14:23;14.93;;;10.57;;
18677;SDS011;9469;51.114;13.914;2022-10-15T05:19:41;15.07;;;10.77;;
18677;SDS011;9469;51.114;13.914;2022-10-15T05:24:56;14.23;;;11.37;;
18677;SDS011;9469;51.114;13.914;2022-10-15T05:30:06;15.43;;;11.47;;
18677;SDS011;9469;51.114;13.914;2022-10-15T05:35:21;15.33;;;11.87;;
18677;SDS011;9469;51.114;13.914;2022-10-15T05:40:34;17.43;;;12.50;;
18677;SDS011;9469;51.114;13.914;2022-10-15T05:45:53;14.07;;;11.47;;
18677;SDS011;9469;51.114;13.914;2022-10-15T05:51:01;16.47;;;13.17;;
18677;SDS011;9469;51.114;13.914;2022-10-15T05:56:11;16.20;;;12.30;;
18677;SDS011;9469;51.114;13.914;2022-10-15T06:01:17;16.33;;;11.67;;
18677;SDS011;9469;51.114;13.914;2022-10-15T06:06:25;15.57;;;11.23;;
18677;SDS011;9469;51.114;13.914;2022-10-15T06:11:33;13.10;;;10.10;;
18677;SDS011;9469;51.114;13.914;2022-10-15T06:16:41;14.57;;;10.83;;
18677;SDS011;9469;51.114;13.914;2022-10-15T06:21:46;13.93;;;11.30;;
18677;SDS011;9469;51.114;13.914;2022-10-15T06:26:53;13.70;;;11.27;;
18677;SDS011;9469;51.114;13.914;2022-10-15T06:31:58;12.30;;;10.23;;
18677;SDS011;9469;51.114;13.914;2022-10-15T06:37:03;12.83;;;10.70;;
18677;SDS011;9469;51.114;13.914;2022-10-15T06:42:11;13.87;;;10.50;;
18677;SDS011;9469;51.114;13.914;2022-10-15T06:47:21;11.60;;;10.27;;
18677;SDS011;9469;51.114;13.914;2022-10-15T06:52:28;15.00;;;11.00;;
18677;SDS011;9469;51.114;13.914;2022-10-15T06:57:37;11.33;;;9.40;;
18677;SDS011;9469;51.114;13.914;2022-10-15T07:02:42;10.90;;;9.00;;
18677;SDS011;9469;51.114;13.914;2022-10-15T07:07:50;9.70;;;8.70;;
18677;SDS011;9469;51.114;13.914;2022-10-15T07:13:00;11.77;;;8.97;;
18677;SDS011;9469;51.114;13.914;2022-10-15T07:18:05;8.43;;;7.53;;
18677;SDS011;9469;51.114;13.914;2022-10-15T07:23:10;11.70;;;7.77;;
18677;SDS011;9469;51.114;13.914;2022-10-15T07:28:18;8.67;;;7.13;;
18677;SDS011;9469;51.114;13.914;2022-10-15T07:33:23;8.60;;;6.70;;
18677;SDS011;9469;51.114;13.914;2022-10-15T07:38:32;9.03;;;5.80;;
18677;SDS011;9469;51.114;13.914;2022-10-15T07:43:40;8.90;;;6.83;;
18677;SDS011;9469;51.114;13.914;2022-10-15T07:48:45;5.57;;;5.03;;
18677;SDS011;9469;51.114;13.914;2022-10-15T07:53:50;5.13;;;4.60;;
18677;SDS011;9469;51.114;13.914;2022-10-15T07:58:58;5.30;;;4.63;;
18677;SDS011;9469;51.114;13.914;2022-10-15T08:04:03;5.43;;;3.97;;
18677;SDS011;9469;51.114;13.914;2022-10-15T08:09:10;5.37;;;4.73;;
18677;SDS011;9469;51.114;13.914;2022-10-15T08:14:17;6.93;;;4.33;;
18677;SDS011;9469;51.114;13.914;2022-10-15T08:19:22;5.20;;;4.30;;
18677;SDS011;9469;51.114;13.914;2022-10-15T08:24:27;5.10;;;3.90;;
18677;SDS011;9469;51.114;13.914;2022-10-15T08:29:34;4.27;;;3.87;;
18677;SDS011;9469;51.114;13.914;2022-10-15T08:34:39;4.93;;;4.43;;
18677;SDS011;9469;51.114;13.914;2022-10-15T08:39:44;5.93;;;3.93;;
18677;SDS011;9469;51.114;13.914;2022-10-15T08:44:52;4.20;;;3.60;;
18677;SDS011;9469;51.114;13.914;2022-10-15T08:50:02;4.57;;;3.87;;
18677;SDS011;9469;51.114;13.914;2022-10-15T08:55:17;5.80;;;3.30;;
18677;SDS011;9469;51.114;13.914;2022-10-15T09:00:27;5.60;;;3.60;;
18677;SDS011;9469;51.114;13.914;2022-10-15T09:05:40;5.27;;;3.87;;
18677;SDS011;9469;51.114;13.914;2022-10-15T09:10:51;3.67;;;3.33;;
18677;SDS011;9469;51.114;13.914;2022-10-15T09:16:03;3.63;;;3.33;;
18677;SDS011;9469;51.114;13.914;2022-10-15T09:21:14;4.70;;;4.23;;
18677;SDS011;9469;51.114;13.914;2022-10-15T09:26:22;3.60;;;3.23;;
18677;SDS011;9469;51.114;13.914;2022-10-15T09:31:36;5.03;;;3.53;;
18677;SDS011;9469;51.114;13.914;2022-10-15T09:36:45;3.87;;;3.50;;
18677;SDS011;9469;51.114;13.914;2022-10-15T09:41:58;5.17;;;3.10;;
18677;SDS011;9469;51.114;13.914;2022-10-15T09:47:21;3.57;;;3.10;;
18677;SDS011;9469;51.114;13.914;2022-10-15T09:52:40;3.87;;;3.57;;
18677;SDS011;9469;51.114;13.914;2022-10-15T09:57:53;5.17;;;4.00;;
18677;SDS011;9469;51.114;13.914;2022-10-15T10:03:06;5.87;;;3.23;;
18677;SDS011;9469;51.114;13.914;2022-10-15T10:08:19;3.53;;;3.23;;
18677;SDS011;9469;51.114;13.914;2022-10-15T10:13:27;3.97;;;3.17;;
18677;SDS011;9469;51.114;13.914;2022-10-15T10:18:37;5.27;;;3.67;;
18677;SDS011;9469;51.114;13.914;2022-10-15T10:23:50;3.73;;;3.27;;
18677;SDS011;9469;51.114;13.914;2022-10-15T10:28:55;3.17;;;2.87;;
18677;SDS011;9469;51.114;13.914;2022-10-15T10:34:20;2.87;;;2.63;;
18677;SDS011;9469;51.114;13.914;2022-10-15T10:39:32;3.20;;;2.90;;
18677;SDS011;9469;51.114;13.914;2022-10-15T10:44:38;4.63;;;3.00;;
18677;SDS011;9469;51.114;13.914;2022-10-15T10:49:50;3.60;;;3.10;;
18677;SDS011;9469;51.114;13.914;2022-10-15T10:54:59;3.50;;;3.20;;
18677;SDS011;9469;51.114;13.914;2022-10-15T11:00:09;3.97;;;3.10;;
18677;SDS011;9469;51.114;13.914;2022-10-15T11:05:25;4.43;;;3.67;;
18677;SDS011;9469;51.114;13.914;2022-10-15T11:10:33;4.27;;;3.13;;
18677;SDS011;9469;51.114;13.914;2022-10-15T11:15:46;4.00;;;3.70;;
18677;SDS011;9469;51.114;13.914;2022-10-15T11:21:00;4.00;;;3.60;;
18677;SDS011;9469;51.114;13.914;2022-10-15T11:26:19;4.87;;;3.70;;
18677;SDS011;9469;51.114;13.914;2022-10-15T11:31:44;3.60;;;3.30;;
18677;SDS011;9469;51.114;13.914;2022-10-15T11:37:10;3.53;;;3.10;;
18677;SDS011;9469;51.114;13.914;2022-10-15T11:42:28;3.53;;;3.23;;
18677;SDS011;9469;51.114;13.914;2022-10-15T11:47:43;3.10;;;2.80;;
18677;SDS011;9469;51.114;13.914;2022-10-15T11:53:02;2.93;;;2.73;;
18677;SDS011;9469;51.114;13.914;2022-10-15T11:58:28;3.53;;;3.23;;
18677;SDS011;9469;51.114;13.914;2022-10-15T12:03:39;3.63;;;3.33;;
18677;SDS011;9469;51.114;13.914;2022-10-15T12:08:55;5.00;;;3.47;;
18677;SDS011;9469;51.114;13.914;2022-10-15T12:14:06;4.80;;;3.27;;
18677;SDS011;9469;51.114;13.914;2022-10-15T12:19:20;5.10;;;3.60;;
18677;SDS011;9469;51.114;13.914;2022-10-15T12:35:32;5.10;;;3.67;;
18677;SDS011;9469;51.114;13.914;2022-10-15T12:40:41;5.00;;;3.80;;
18677;SDS011;9469;51.114;13.914;2022-10-15T12:45:49;3.57;;;3.27;;
18677;SDS011;9469;51.114;13.914;2022-10-15T12:56:45;4.73;;;4.00;;
18677;SDS011;9469;51.114;13.914;2022-10-15T13:01:50;4.70;;;4.20;;
18677;SDS011;9469;51.114;13.914;2022-10-15T13:07:00;5.10;;;4.60;;
18677;SDS011;9469;51.114;13.914;2022-10-15T13:12:18;5.47;;;4.63;;
18677;SDS011;9469;51.114;13.914;2022-10-15T13:17:26;4.37;;;3.97;;
18677;SDS011;9469;51.114;13.914;2022-10-15T13:22:32;6.57;;;5.03;;
18677;SDS011;9469;51.114;13.914;2022-10-15T13:27:41;5.03;;;4.03;;
18677;SDS011;9469;51.114;13.914;2022-10-15T13:32:46;6.27;;;4.97;;
18677;SDS011;9469;51.114;13.914;2022-10-15T13:37:53;4.30;;;3.90;;
18677;SDS011;9469;51.114;13.914;2022-10-15T13:43:02;5.23;;;4.10;;
18677;SDS011;9469;51.114;13.914;2022-10-15T13:48:09;4.50;;;4.10;;
18677;SDS011;9469;51.114;13.914;2022-10-15T13:53:17;4.03;;;3.30;;
18677;SDS011;9469;51.114;13.914;2022-10-15T13:58:30;3.57;;;3.10;;
18677;SDS011;9469;51.114;13.914;2022-10-15T14:03:44;4.67;;;4.20;;
18677;SDS011;9469;51.114;13.914;2022-10-15T14:08:50;3.97;;;3.57;;
18677;SDS011;9469;51.114;13.914;2022-10-15T14:14:00;5.87;;;3.87;;
18677;SDS011;9469;51.114;13.914;2022-10-15T14:19:07;4.23;;;3.83;;
18677;SDS011;9469;51.114;13.914;2022-10-15T14:24:17;4.13;;;3.73;;
18677;SDS011;9469;51.114;13.914;2022-10-15T14:29:27;5.97;;;4.20;;
18677;SDS011;9469;51.114;13.914;2022-10-15T14:34:39;6.60;;;4.30;;
18677;SDS011;9469;51.114;13.914;2022-10-15T14:39:46;6.03;;;4.83;;
18677;SDS011;9469;51.114;13.914;2022-10-15T14:44:54;5.80;;;5.10;;
18677;SDS011;9469;51.114;13.914;2022-10-15T14:49:59;6.70;;;5.63;;
18677;SDS011;9469;51.114;13.914;2022-10-15T14:55:05;5.23;;;4.73;;
18677;SDS011;9469;51.114;13.914;2022-10-15T15:00:21;5.77;;;5.17;;
18677;SDS011;9469;51.114;13.914;2022-10-15T15:05:29;6.43;;;5.73;;
18677;SDS011;9469;51.114;13.914;2022-10-15T15:10:34;7.70;;;6.30;;
18677;SDS011;9469;51.114;13.914;2022-10-15T15:15:43;7.27;;;5.50;;
18677;SDS011;9469;51.114;13.914;2022-10-15T15:20:48;7.27;;;6.30;;
18677;SDS011;9469;51.114;13.914;2022-10-15T15:25:54;8.90;;;6.80;;
18677;SDS011;9469;51.114;13.914;2022-10-15T15:31:02;8.03;;;7.23;;
18677;SDS011;9469;51.114;13.914;2022-10-15T15:36:11;20.30;;;13.73;;
18677;SDS011;9469;51.114;13.914;2022-10-15T15:41:22;12.03;;;8.17;;
18677;SDS011;9469;51.114;13.914;2022-10-15T15:46:30;10.27;;;7.07;;
18677;SDS011;9469;51.114;13.914;2022-10-15T15:51:35;12.10;;;7.90;;
18677;SDS011;9469;51.114;13.914;2022-10-15T15:56:40;10.63;;;7.90;;
18677;SDS011;9469;51.114;13.914;2022-10-15T16:02:08;11.73;;;8.00;;
18677;SDS011;9469;51.114;13.914;2022-10-15T16:07:13;11.23;;;8.03;;
18677;SDS011;9469;51.114;13.914;2022-10-15T16:12:20;9.87;;;8.00;;
18677;SDS011;9469;51.114;13.914;2022-10-15T16:17:27;10.13;;;8.37;;
18677;SDS011;9469;51.114;13.914;2022-10-15T16:22:32;13.23;;;10.20;;
18677;SDS011;9469;51.114;13.914;2022-10-15T16:27:37;12.93;;;9.43;;
18677;SDS011;9469;51.114;13.914;2022-10-15T16:32:45;11.53;;;9.40;;
18677;SDS011;9469;51.114;13.914;2022-10-15T16:37:49;12.53;;;8.83;;
18677;SDS011;9469;51.114;13.914;2022-10-15T16:42:57;11.73;;;8.73;;
18677;SDS011;9469;51.114;13.914;2022-10-15T16:48:06;12.23;;;8.70;;
18677;SDS011;9469;51.114;13.914;2022-10-15T16:53:11;11.97;;;9.23;;
18677;SDS011;9469;51.114;13.914;2022-10-15T16:58:16;12.27;;;9.63;;
18677;SDS011;9469;51.114;13.914;2022-10-15T17:03:24;15.47;;;11.23;;
18677;SDS011;9469;51.114;13.914;2022-10-15T17:08:35;13.50;;;10.87;;
18677;SDS011;9469;51.114;13.914;2022-10-15T17:13:42;15.57;;;10.57;;
18677;SDS011;9469;51.114;13.914;2022-10-15T17:18:50;11.70;;;10.43;;
18677;SDS011;9469;51.114;13.914;2022-10-15T17:23:56;14.00;;;9.90;;
18677;SDS011;9469;51.114;13.914;2022-10-15T17:29:03;16.17;;;12.57;;
18677;SDS011;9469;51.114;13.914;2022-10-15T17:34:12;14.80;;;10.70;;
18677;SDS011;9469;51.114;13.914;2022-10-15T17:39:17;9.90;;;8.70;;
18677;SDS011;9469;51.114;13.914;2022-10-15T17:44:24;14.83;;;10.57;;
18677;SDS011;9469;51.114;13.914;2022-10-15T17:49:31;10.10;;;8.20;;
18677;SDS011;9469;51.114;13.914;2022-10-15T17:54:36;11.17;;;8.27;;
18677;SDS011;9469;51.114;13.914;2022-10-15T17:59:41;11.03;;;9.10;;
18677;SDS011;9469;51.114;13.914;2022-10-15T18:04:54;12.43;;;9.43;;
18677;SDS011;9469;51.114;13.914;2022-10-15T18:09:59;15.57;;;10.37;;
18677;SDS011;9469;51.114;13.914;2022-10-15T18:15:05;14.57;;;10.87;;
18677;SDS011;9469;51.114;13.914;2022-10-15T18:20:13;15.23;;;10.80;;
18677;SDS011;9469;51.114;13.914;2022-10-15T18:25:18;11.47;;;9.47;;
18677;SDS011;9469;51.114;13.914;2022-10-15T18:30:24;13.47;;;9.53;;
18677;SDS011;9469;51.114;13.914;2022-10-15T18:35:32;11.67;;;9.20;;
18677;SDS011;9469;51.114;13.914;2022-10-15T18:40:38;13.03;;;8.87;;
18677;SDS011;9469;51.114;13.914;2022-10-15T18:45:43;11.50;;;8.93;;
18677;SDS011;9469;51.114;13.914;2022-10-15T18:50:51;9.73;;;8.03;;
18677;SDS011;9469;51.114;13.914;2022-10-15T18:55:56;11.40;;;9.20;;
18677;SDS011;9469;51.114;13.914;2022-10-15T19:01:11;11.30;;;9.13;;
18677;SDS011;9469;51.114;13.914;2022-10-15T19:06:26;10.33;;;8.50;;
18677;SDS011;9469;51.114;13.914;2022-10-15T19:11:33;12.97;;;8.70;;
18677;SDS011;9469;51.114;13.914;2022-10-15T19:16:39;10.57;;;9.47;;
18677;SDS011;9469;51.114;13.914;2022-10-15T19:21:46;11.23;;;9.63;;
18677;SDS011;9469;51.114;13.914;2022-10-15T19:26:53;14.73;;;10.80;;
18677;SDS011;9469;51.114;13.914;2022-10-15T19:31:58;14.67;;;11.90;;
18677;SDS011;9469;51.114;13.914;2022-10-15T19:37:06;14.23;;;11.53;;
18677;SDS011;9469;51.114;13.914;2022-10-15T19:42:21;16.03;;;11.90;;
18677;SDS011;9469;51.114;13.914;2022-10-15T19:47:26;15.33;;;12.80;;
18677;SDS011;9469;51.114;13.914;2022-10-15T19:52:34;18.37;;;14.10;;
18677;SDS011;9469;51.114;13.914;2022-10-15T19:57:39;16.30;;;13.50;;
18677;SDS011;9469;51.114;13.914;2022-10-15T20:02:44;17.77;;;14.43;;
18677;SDS011;9469;51.114;13.914;2022-10-15T20:07:51;16.33;;;14.03;;
18677;SDS011;9469;51.114;13.914;2022-10-15T20:12:56;18.13;;;14.70;;
18677;SDS011;9469;51.114;13.914;2022-10-15T20:18:01;19.43;;;14.07;;
18677;SDS011;9469;51.114;13.914;2022-10-15T20:23:08;19.23;;;14.47;;
18677;SDS011;9469;51.114;13.914;2022-10-15T20:28:14;19.50;;;14.03;;
18677;SDS011;9469;51.114;13.914;2022-10-15T20:33:20;17.10;;;14.43;;
18677;SDS011;9469;51.114;13.914;2022-10-15T20:38:28;19.17;;;13.67;;
18677;SDS011;9469;51.114;13.914;2022-10-15T20:43:33;20.13;;;14.63;;
18677;SDS011;9469;51.114;13.914;2022-10-15T20:48:38;18.97;;;13.27;;
18677;SDS011;9469;51.114;13.914;2022-10-15T20:53:46;17.90;;;14.07;;
18677;SDS011;9469;51.114;13.914;2022-10-15T20:58:51;18.70;;;14.07;;
18677;SDS011;9469;51.114;13.914;2022-10-15T21:03:56;15.93;;;13.20;;
18677;SDS011;9469;51.114;13.914;2022-10-15T21:09:04;18.53;;;13.87;;
18677;SDS011;9469;51.114;13.914;2022-10-15T21:14:09;18.50;;;15.13;;
18677;SDS011;9469;51.114;13.914;2022-10-15T21:19:15;17.20;;;14.30;;
18677;SDS011;9469;51.114;13.914;2022-10-15T21:24:22;19.07;;;15.13;;
18677;SDS011;9469;51.114;13.914;2022-10-15T21:29:28;19.20;;;14.87;;
18677;SDS011;9469;51.114;13.914;2022-10-15T21:34:33;18.13;;;14.53;;
18677;SDS011;9469;51.114;13.914;2022-10-15T21:39:41;16.03;;;13.43;;
18677;SDS011;9469;51.114;13.914;2022-10-15T21:44:46;18.63;;;14.50;;
18677;SDS011;9469;51.114;13.914;2022-10-15T21:49:50;16.03;;;13.60;;
18677;SDS011;9469;51.114;13.914;2022-10-15T21:54:58;16.60;;;13.13;;
18677;SDS011;9469;51.114;13.914;2022-10-15T22:00:04;17.17;;;13.30;;
18677;SDS011;9469;51.114;13.914;2022-10-15T22:05:31;16.10;;;12.47;;
18677;SDS011;9469;51.114;13.914;2022-10-15T22:10:38;17.17;;;13.70;;
18677;SDS011;9469;51.114;13.914;2022-10-15T22:15:43;20.23;;;13.53;;
18677;SDS011;9469;51.114;13.914;2022-10-15T22:20:48;17.07;;;13.90;;
18677;SDS011;9469;51.114;13.914;2022-10-15T22:25:59;18.30;;;14.77;;
18677;SDS011;9469;51.114;13.914;2022-10-15T22:31:04;19.27;;;14.30;;
18677;SDS011;9469;51.114;13.914;2022-10-15T22:36:13;18.97;;;14.97;;
18677;SDS011;9469;51.114;13.914;2022-10-15T22:41:22;20.73;;;14.83;;
18677;SDS011;9469;51.114;13.914;2022-10-15T22:46:30;20.87;;;14.50;;
18677;SDS011;9469;51.114;13.914;2022-10-15T22:51:35;17.37;;;15.27;;
18677;SDS011;9469;51.114;13.914;2022-10-15T22:56:42;18.10;;;14.90;;
18677;SDS011;9469;51.114;13.914;2022-10-15T23:01:48;18.17;;;14.60;;
18677;SDS011;9469;51.114;13.914;2022-10-15T23:06:52;19.43;;;15.20;;
18677;SDS011;9469;51.114;13.914;2022-10-15T23:12:00;17.63;;;14.87;;
18677;SDS011;9469;51.114;13.914;2022-10-15T23:17:05;17.87;;;15.30;;
18677;SDS011;9469;51.114;13.914;2022-10-15T23:22:10;20.33;;;15.73;;
18677;SDS011;9469;51.114;13.914;2022-10-15T23:27:18;18.63;;;15.27;;
18677;SDS011;9469;51.114;13.914;2022-10-15T23:32:23;18.67;;;14.77;;
18677;SDS011;9469;51.114;13.914;2022-10-15T23:37:28;20.10;;;16.50;;
18677;SDS011;9469;51.114;13.914;2022-10-15T23:42:35;19.90;;;16.07;;
18677;SDS011;9469;51.114;13.914;2022-10-15T23:47:40;19.67;;;15.93;;
18677;SDS011;9469;51.114;13.914;2022-10-15T23:52:45;21.33;;;16.57;;
18677;SDS011;9469;51.114;13.914;2022-10-15T23:57:52;20.77;;;16.00;;
